createdAt,value
2019-02-12T00:01:20.349Z,81.30
2019-02-12T00:04:13.612Z,81.70
2019-02-12T00:06:58.480Z,81.80
2019-02-12T00:09:43.521Z,81.70
2019-02-12T00:12:28.748Z,81.80
2019-02-12T00:15:22.869Z,81.80
2019-02-12T00:18:16.856Z,81.70
2019-02-12T00:21:10.729Z,81.80
2019-02-12T00:23:55.199Z,81.80
2019-02-12T00:26:40.265Z,81.80
2019-02-12T00:29:25.344Z,82.20
2019-02-12T00:32:19.265Z,82.30
2019-02-12T00:35:04.341Z,82.40
2019-02-12T00:37:58.459Z,82.30
2019-02-12T00:40:52.509Z,82.40
2019-02-12T00:43:46.874Z,82.80
2019-02-12T00:46:40.661Z,82.80
2019-02-12T00:49:34.561Z,82.80
2019-02-12T00:52:19.685Z,83.00
2019-02-12T00:55:13.853Z,82.80
2019-02-12T00:58:07.778Z,82.50
2019-02-12T01:00:52.512Z,82.60
2019-02-12T01:03:37.505Z,82.40
2019-02-12T01:06:31.300Z,82.70
2019-02-12T01:09:16.297Z,82.10
2019-02-12T01:12:01.573Z,82.00
2019-02-12T01:14:55.020Z,81.80
2019-02-12T01:17:40.527Z,81.90
2019-02-12T01:20:26.470Z,81.80
2019-02-12T01:23:11.212Z,81.40
2019-02-12T01:25:56.573Z,81.00
2019-02-12T01:28:43.148Z,80.80
2019-02-12T01:31:28.161Z,80.50
2019-02-12T01:34:13.552Z,80.80
2019-02-12T01:36:58.354Z,81.00
2019-02-12T01:39:42.813Z,81.70
2019-02-12T01:42:28.256Z,81.30
2019-02-12T01:45:21.897Z,81.30
2019-02-12T01:51:47.072Z,80.60
2019-02-12T01:54:32.289Z,81.00
2019-02-12T01:57:17.376Z,80.70
2019-02-12T02:00:02.610Z,80.60
2019-02-12T02:02:48.505Z,80.60
2019-02-12T02:05:33.466Z,80.80
2019-02-12T02:08:18.073Z,80.90
2019-02-12T02:11:03.128Z,80.90
2019-02-12T02:13:56.904Z,80.70
2019-02-12T02:16:41.580Z,80.00
2019-02-12T02:19:25.855Z,79.90
2019-02-12T02:22:10.417Z,79.90
2019-02-12T02:25:03.962Z,79.70
2019-02-12T02:27:49.016Z,79.80
2019-02-12T02:30:45.217Z,79.50
2019-02-12T02:33:28.411Z,79.60
2019-02-12T02:36:13.140Z,79.30
2019-02-12T02:38:57.396Z,79.50
2019-02-12T02:41:50.860Z,79.50
2019-02-12T02:44:36.236Z,79.80
2019-02-12T02:47:20.836Z,79.90
2019-02-12T02:50:05.831Z,79.60
2019-02-12T02:52:50.709Z,79.30
2019-02-12T02:55:36.118Z,79.10
2019-02-12T02:58:20.920Z,79.50
2019-02-12T03:01:05.783Z,79.90
2019-02-12T03:03:50.639Z,79.20
2019-02-12T03:06:36.076Z,78.70
2019-02-12T03:09:20.802Z,78.60
2019-02-12T03:12:15.596Z,78.40
2019-02-12T03:15:12.411Z,78.70
2019-02-12T03:17:56.708Z,79.00
2019-02-12T03:20:41.671Z,78.80
2019-02-12T03:23:26.896Z,78.80
2019-02-12T03:26:11.766Z,79.10
2019-02-12T03:29:05.595Z,79.00
2019-02-12T03:31:50.125Z,79.40
2019-02-12T03:34:34.639Z,79.20
2019-02-12T03:37:19.184Z,79.50
2019-02-12T03:40:03.760Z,80.40
2019-02-12T03:42:57.619Z,79.90
2019-02-12T03:45:51.060Z,79.70
2019-02-12T03:48:36.204Z,79.30
2019-02-12T03:51:21.033Z,79.20
2019-02-12T03:54:05.977Z,79.50
2019-02-12T03:56:59.919Z,79.40
2019-02-12T03:59:44.573Z,79.10
2019-02-12T04:02:29.684Z,78.60
2019-02-12T04:05:23.404Z,79.10
2019-02-12T04:08:08.313Z,78.30
2019-02-12T04:10:52.867Z,78.30
2019-02-12T04:13:37.265Z,78.00
2019-02-12T04:16:22.240Z,77.60
2019-02-12T04:19:06.820Z,77.80
2019-02-12T04:21:51.300Z,77.60
2019-02-12T04:24:44.723Z,77.40
2019-02-12T04:27:29.965Z,77.30
2019-02-12T04:30:23.558Z,77.40
2019-02-12T04:33:08.063Z,77.20
2019-02-12T04:35:52.835Z,77.60
2019-02-12T04:38:37.607Z,78.00
2019-02-12T04:41:22.252Z,78.60
2019-02-12T04:44:06.504Z,78.60
2019-02-12T04:47:20.015Z,78.40
2019-02-12T04:50:04.719Z,78.50
2019-02-12T04:52:49.167Z,78.00
2019-02-12T04:55:42.421Z,77.80
2019-02-12T04:58:27.462Z,77.40
2019-02-12T05:01:12.477Z,76.90
2019-02-12T05:04:06.468Z,76.70
2019-02-12T05:06:51.349Z,77.40
2019-02-12T05:09:46.937Z,77.30
2019-02-12T05:12:31.545Z,77.20
2019-02-12T05:15:16.574Z,77.10
2019-02-12T05:18:01.545Z,77.10
2019-02-12T05:20:46.172Z,76.90
2019-02-12T05:23:31.219Z,77.00
2019-02-12T05:26:16.145Z,77.20
2019-02-12T05:29:00.848Z,77.40
2019-02-12T05:31:45.499Z,77.30
2019-02-12T05:34:30.638Z,77.30
2019-02-12T05:37:15.436Z,77.20
2019-02-12T05:40:00.052Z,77.60
2019-02-12T05:42:44.312Z,76.40
2019-02-12T05:45:29.020Z,75.80
2019-02-12T05:48:13.611Z,75.80
2019-02-12T05:51:06.913Z,76.70
2019-02-12T05:53:51.398Z,75.80
2019-02-12T05:56:36.355Z,75.90
2019-02-12T05:59:21.146Z,76.00
2019-02-12T06:02:06.129Z,76.00
2019-02-12T06:04:51.423Z,75.80
2019-02-12T06:07:45.208Z,75.80
2019-02-12T06:10:29.389Z,76.40
2019-02-12T06:13:13.983Z,76.70
2019-02-12T06:16:01.400Z,76.40
2019-02-12T06:18:55.660Z,75.80
2019-02-12T06:21:49.408Z,75.70
2019-02-12T06:24:34.177Z,75.60
2019-02-12T06:27:19.288Z,75.80
2019-02-12T06:30:13.523Z,75.80
2019-02-12T06:33:07.877Z,74.20
2019-02-12T06:35:52.461Z,73.80
2019-02-12T06:38:45.714Z,74.10
2019-02-12T06:41:30.536Z,73.90
2019-02-12T06:44:15.888Z,73.60
2019-02-12T06:47:09.749Z,73.40
2019-02-12T06:49:55.209Z,73.40
2019-02-12T06:52:48.592Z,73.20
2019-02-12T06:55:33.244Z,72.40
2019-02-12T06:58:17.583Z,73.10
2019-02-12T07:01:02.449Z,73.10
2019-02-12T07:03:47.539Z,73.20
2019-02-12T07:06:32.457Z,72.90
2019-02-12T07:09:17.675Z,72.40
2019-02-12T07:12:12.164Z,72.50
2019-02-12T07:15:05.799Z,72.40
2019-02-12T07:17:50.400Z,72.40
2019-02-12T07:20:35.365Z,72.40
2019-02-12T07:23:21.321Z,72.80
2019-02-12T07:26:06.348Z,73.20
2019-02-12T07:28:50.880Z,73.90
2019-02-12T07:31:35.538Z,73.50
2019-02-12T07:34:20.536Z,72.70
2019-02-12T07:37:05.740Z,72.50
2019-02-12T07:39:50.872Z,72.50
2019-02-12T07:42:44.951Z,72.50
2019-02-12T07:45:38.539Z,72.70
2019-02-12T07:48:23.640Z,72.30
2019-02-12T07:51:08.824Z,71.60
2019-02-12T07:54:02.617Z,71.30
2019-02-12T07:56:47.354Z,71.50
2019-02-12T07:59:33.799Z,70.20
2019-02-12T08:02:19.105Z,69.40
2019-02-12T08:05:12.737Z,70.60
2019-02-12T08:08:10.143Z,70.40
2019-02-12T08:10:54.941Z,70.50
2019-02-12T08:13:39.928Z,69.90
2019-02-12T08:16:25.274Z,70.10
2019-02-12T08:19:10.340Z,69.80
2019-02-12T08:22:03.844Z,69.10
2019-02-12T08:24:48.694Z,69.60
2019-02-12T08:27:32.968Z,69.10
2019-02-12T08:30:17.952Z,69.20
2019-02-12T08:33:02.729Z,69.70
2019-02-12T08:35:56.744Z,69.50
2019-02-12T08:38:34.247Z,68.00
2019-02-12T08:41:19.185Z,66.50
2019-02-12T08:44:04.111Z,66.80
2019-02-12T08:46:49.238Z,65.10
2019-02-12T08:49:44.737Z,65.20
2019-02-12T08:52:29.216Z,65.50
2019-02-12T08:55:14.161Z,65.40
2019-02-12T08:57:58.583Z,65.40
2019-02-12T09:00:43.565Z,64.50
2019-02-12T09:03:28.511Z,65.40
2019-02-12T09:06:13.361Z,65.30
2019-02-12T09:08:58.396Z,65.40
2019-02-12T09:11:43.207Z,64.90
2019-02-12T09:14:28.100Z,65.20
2019-02-12T09:17:12.967Z,64.40
2019-02-12T09:19:57.952Z,64.50
2019-02-12T09:22:42.976Z,64.30
2019-02-12T09:25:36.957Z,64.40
2019-02-12T09:28:30.658Z,62.50
2019-02-12T09:31:15.289Z,62.20
2019-02-12T09:34:00.434Z,61.70
2019-02-12T09:36:45.274Z,61.00
2019-02-12T09:39:30.151Z,60.60
2019-02-12T09:42:15.179Z,61.30
2019-02-12T09:45:09.080Z,60.20
2019-02-12T09:47:53.615Z,60.00
2019-02-12T09:50:37.976Z,59.80
2019-02-12T09:53:23.075Z,59.80
2019-02-12T09:56:07.822Z,60.00
2019-02-12T09:59:04.213Z,59.50
2019-02-12T10:01:48.720Z,60.10
2019-02-12T10:04:33.340Z,60.00
2019-02-12T10:07:18.501Z,59.90
2019-02-12T10:10:03.473Z,57.70
2019-02-12T10:12:49.703Z,57.20
2019-02-12T10:15:34.736Z,57.10
2019-02-12T10:18:19.854Z,55.80
2019-02-12T10:21:13.367Z,55.40
2019-02-12T10:23:57.664Z,55.50
2019-02-12T10:26:42.503Z,55.00
2019-02-12T10:29:27.397Z,54.30
2019-02-12T10:32:12.334Z,55.10
2019-02-12T10:34:56.968Z,53.60
2019-02-12T10:37:41.155Z,53.30
2019-02-12T10:40:27.174Z,53.20
2019-02-12T10:43:11.688Z,51.10
2019-02-12T10:45:56.309Z,49.20
2019-02-12T10:48:50.871Z,50.00
2019-02-12T10:51:35.772Z,50.80
2019-02-12T10:54:27.771Z,49.80
2019-02-12T10:57:07.312Z,50.40
2019-02-12T11:00:01.135Z,50.40
2019-02-12T11:02:55.183Z,49.70
2019-02-12T11:05:40.227Z,50.00
2019-02-12T11:08:34.028Z,50.50
2019-02-12T11:11:18.875Z,51.30
2019-02-12T11:14:03.828Z,50.90
2019-02-12T11:16:57.992Z,49.30
2019-02-12T11:19:57.728Z,48.40
2019-02-12T11:22:42.465Z,47.40
2019-02-12T11:25:27.155Z,46.80
2019-02-12T11:28:12.036Z,46.60
2019-02-12T11:30:57.267Z,47.40
2019-02-12T11:33:52.234Z,48.50
2019-02-12T11:36:36.901Z,49.00
2019-02-12T11:39:21.760Z,50.70
2019-02-12T11:42:06.580Z,52.20
2019-02-12T11:44:51.259Z,53.60
2019-02-12T11:47:36.119Z,53.70
2019-02-12T11:50:21.251Z,53.70
2019-02-12T11:53:05.880Z,53.80
2019-02-12T11:55:50.359Z,53.70
2019-02-12T11:58:34.972Z,53.20
2019-02-12T12:01:22.199Z,53.00
2019-02-12T12:04:07.088Z,52.60
2019-02-12T12:06:50.356Z,51.40
2019-02-12T12:09:42.644Z,51.20
2019-02-12T12:12:27.191Z,51.20
2019-02-12T12:15:12.387Z,50.20
2019-02-12T12:18:05.272Z,50.80
2019-02-12T12:20:57.315Z,50.20
2019-02-12T12:23:51.009Z,49.20
2019-02-12T12:26:44.795Z,47.90
2019-02-12T12:29:30.404Z,48.40
2019-02-12T12:32:15.044Z,48.80
2019-02-12T12:35:08.509Z,49.10
2019-02-12T12:37:53.636Z,47.50
2019-02-12T12:40:47.475Z,49.00
2019-02-12T12:43:32.028Z,49.70
2019-02-12T12:46:16.963Z,46.90
2019-02-12T12:49:02.427Z,47.50
2019-02-12T12:51:56.059Z,47.80
2019-02-12T12:54:40.491Z,47.90
2019-02-12T12:57:25.019Z,48.00
2019-02-12T13:00:10.284Z,48.40
2019-02-12T13:03:04.539Z,47.90
2019-02-12T13:05:50.242Z,49.80
2019-02-12T13:08:34.928Z,49.10
2019-02-12T13:11:19.580Z,48.00
2019-02-12T13:14:12.984Z,48.00
2019-02-12T13:16:58.132Z,48.60
2019-02-12T13:19:51.783Z,48.70
2019-02-12T13:22:36.516Z,48.80
2019-02-12T13:25:21.659Z,48.20
2019-02-12T13:28:07.419Z,47.80
2019-02-12T13:30:51.909Z,47.90
2019-02-12T13:33:36.364Z,47.10
2019-02-12T13:36:30.232Z,47.20
2019-02-12T13:39:14.942Z,47.70
2019-02-12T13:41:59.609Z,47.40
2019-02-12T13:44:44.224Z,48.10
2019-02-12T13:47:28.737Z,47.40
2019-02-12T13:50:13.795Z,47.80
2019-02-12T13:53:00.409Z,48.30
2019-02-12T13:55:45.409Z,47.80
2019-02-12T13:58:30.476Z,47.20
2019-02-12T14:01:26.603Z,47.80
2019-02-12T14:04:11.815Z,47.50
2019-02-12T14:06:56.627Z,46.90
2019-02-12T14:09:41.240Z,47.10
2019-02-12T14:12:25.867Z,46.80
2019-02-12T14:15:10.531Z,46.60
2019-02-12T14:17:56.188Z,47.20
2019-02-12T14:20:49.912Z,47.70
2019-02-12T14:23:35.001Z,48.10
2019-02-12T14:26:20.159Z,49.10
2019-02-12T14:29:14.136Z,49.30
2019-02-12T14:32:08.012Z,49.40
2019-02-12T14:34:52.801Z,49.20
2019-02-12T14:37:37.622Z,49.10
2019-02-12T14:40:22.723Z,48.90
2019-02-12T14:43:16.408Z,48.80
2019-02-12T14:46:01.041Z,48.90
2019-02-12T14:48:46.039Z,48.70
2019-02-12T14:51:30.699Z,48.80
2019-02-12T14:54:15.720Z,48.90
2019-02-12T14:57:00.275Z,48.70
2019-02-12T14:59:45.283Z,48.70
2019-02-12T15:02:29.599Z,49.20
2019-02-12T15:05:14.505Z,49.50
2019-02-12T15:07:58.815Z,49.80
2019-02-12T15:10:52.253Z,49.90
2019-02-12T15:13:36.892Z,49.60
2019-02-12T15:16:21.863Z,49.20
2019-02-12T15:19:06.035Z,49.50
2019-02-12T15:21:51.456Z,49.70
2019-02-12T15:24:36.130Z,49.70
2019-02-12T15:27:21.419Z,50.20
2019-02-12T15:30:15.283Z,50.50
2019-02-12T15:33:00.446Z,50.60
2019-02-12T15:35:54.048Z,50.90
2019-02-12T15:38:38.935Z,51.30
2019-02-12T15:41:23.848Z,51.40
2019-02-12T15:44:17.539Z,50.60
2019-02-12T15:47:01.286Z,50.70
2019-02-12T15:49:55.015Z,51.00
2019-02-12T15:52:39.600Z,51.50
2019-02-12T15:55:24.818Z,51.30
2019-02-12T15:58:10.224Z,50.80
2019-02-12T16:00:55.000Z,50.90
2019-02-12T16:03:40.294Z,51.20
2019-02-12T16:06:24.967Z,50.70
2019-02-12T16:09:09.665Z,51.20
2019-02-12T16:11:54.211Z,51.40
2019-02-12T16:14:40.116Z,51.70
2019-02-12T16:17:35.251Z,52.20
2019-02-12T16:20:19.948Z,52.60
2019-02-12T16:23:04.896Z,53.00
2019-02-12T16:25:49.904Z,53.20
2019-02-12T16:28:34.788Z,52.70
2019-02-12T16:31:19.459Z,52.60
2019-02-12T16:34:03.920Z,52.60
2019-02-12T16:36:48.336Z,52.90
2019-02-12T16:39:32.954Z,52.80
2019-02-12T16:42:28.747Z,53.10
2019-02-12T16:45:13.796Z,53.20
2019-02-12T16:48:00.145Z,53.80
2019-02-12T16:50:45.582Z,54.10
2019-02-12T16:53:31.921Z,54.30
2019-02-12T16:56:16.175Z,54.50
2019-02-12T16:59:03.505Z,54.80
2019-02-12T17:01:47.772Z,54.80
2019-02-12T17:04:32.331Z,54.80
2019-02-12T17:07:27.185Z,55.20
2019-02-12T17:10:21.352Z,55.90
2019-02-12T17:13:15.159Z,56.60
2019-02-12T17:15:58.318Z,57.60
2019-02-12T17:18:43.048Z,58.20
2019-02-12T17:21:27.779Z,58.80
2019-02-12T17:24:12.822Z,59.00
2019-02-12T17:26:57.487Z,59.50
2019-02-12T17:29:42.395Z,60.00
2019-02-12T17:32:27.310Z,60.90
2019-02-12T17:35:11.949Z,61.60
2019-02-12T17:37:57.200Z,62.50
2019-02-12T17:40:52.867Z,63.00
2019-02-12T17:43:46.559Z,63.80
2019-02-12T17:46:32.072Z,64.50
2019-02-12T17:49:17.160Z,65.00
2019-02-12T17:52:04.164Z,65.10
2019-02-12T17:54:48.856Z,65.20
2019-02-12T17:57:33.533Z,65.60
2019-02-12T18:00:20.904Z,66.10
2019-02-12T18:03:05.932Z,66.40
2019-02-12T18:05:50.019Z,67.00
2019-02-12T18:08:43.639Z,67.70
2019-02-12T18:11:28.746Z,68.40
2019-02-12T18:14:13.584Z,68.40
2019-02-12T18:16:58.836Z,68.00
2019-02-12T18:19:52.655Z,68.00
2019-02-12T18:22:46.707Z,68.20
2019-02-12T18:25:40.459Z,68.80
2019-02-12T18:28:25.752Z,69.20
2019-02-12T18:31:19.336Z,69.40
2019-02-12T18:34:04.133Z,69.30
2019-02-12T18:36:49.067Z,69.60
2019-02-12T18:39:34.052Z,69.30
2019-02-12T18:42:19.121Z,68.90
2019-02-12T18:45:33.563Z,69.00
2019-02-12T18:48:27.530Z,69.40
2019-02-12T18:51:21.447Z,69.40
2019-02-12T18:54:06.508Z,69.60
2019-02-12T18:57:00.153Z,69.30
2019-02-12T18:59:44.800Z,70.10
2019-02-12T19:02:29.441Z,70.40
2019-02-12T19:05:13.852Z,71.20
2019-02-12T19:07:59.256Z,70.40
2019-02-12T19:10:44.104Z,70.10
2019-02-12T19:13:28.807Z,70.20
2019-02-12T19:16:13.101Z,70.40
2019-02-12T19:18:57.793Z,70.30
2019-02-12T19:21:42.670Z,71.10
2019-02-12T19:24:26.948Z,71.00
2019-02-12T19:27:20.708Z,70.80
2019-02-12T19:30:05.569Z,70.40
2019-02-12T19:32:49.990Z,71.30
2019-02-12T19:35:34.966Z,72.00
2019-02-12T19:38:19.549Z,72.10
2019-02-12T19:41:04.376Z,71.80
2019-02-12T19:43:49.792Z,71.90
2019-02-12T19:46:43.571Z,71.80
2019-02-12T19:49:28.548Z,71.10
2019-02-12T19:52:13.364Z,71.20
2019-02-12T19:54:58.411Z,70.80
2019-02-12T19:57:51.925Z,70.90
2019-02-12T20:00:36.727Z,70.40
2019-02-12T20:03:31.639Z,70.20
2019-02-12T20:06:24.990Z,70.10
2019-02-12T20:09:15.828Z,70.40
2019-02-12T20:12:00.639Z,70.40
2019-02-12T20:14:45.265Z,70.60
2019-02-12T20:17:30.245Z,71.20
2019-02-12T20:20:15.786Z,70.90
2019-02-12T20:23:09.437Z,70.30
2019-02-12T20:25:54.529Z,70.00
2019-02-12T20:28:39.391Z,69.80
2019-02-12T20:31:24.035Z,70.10
2019-02-12T20:34:09.209Z,70.70
2019-02-12T20:37:04.868Z,71.00
2019-02-12T20:39:59.973Z,71.80
2019-02-12T20:42:44.929Z,72.50
2019-02-12T20:45:29.809Z,72.60
2019-02-12T20:48:14.222Z,72.70
2019-02-12T20:50:59.247Z,72.90
2019-02-12T20:53:44.104Z,73.00
2019-02-12T20:56:28.915Z,72.80
2019-02-12T20:59:13.808Z,72.10
2019-02-12T21:01:58.072Z,70.60
2019-02-12T21:04:43.335Z,69.00
2019-02-12T21:07:27.783Z,67.60
2019-02-12T21:10:12.657Z,66.50
2019-02-12T21:12:58.712Z,65.70
2019-02-12T21:15:43.844Z,65.40
2019-02-12T21:18:27.479Z,66.50
2019-02-12T21:21:19.783Z,67.90
2019-02-12T21:24:22.056Z,69.70
2019-02-12T21:27:07.066Z,68.80
2019-02-12T21:29:51.960Z,67.70
2019-02-12T21:32:36.867Z,68.50
2019-02-12T21:35:20.187Z,70.50
2019-02-12T21:41:43.458Z,70.90
2019-02-12T21:44:28.604Z,69.70
2019-02-12T21:47:11.910Z,70.10
2019-02-12T21:49:57.447Z,70.60
2019-02-12T21:52:50.811Z,71.50
2019-02-12T21:55:35.736Z,71.70
2019-02-12T21:58:20.267Z,72.20
2019-02-12T22:01:05.162Z,72.20
2019-02-12T22:03:50.035Z,71.70
2019-02-12T22:06:34.547Z,72.10
2019-02-12T22:09:19.516Z,72.40
2019-02-12T22:12:04.034Z,74.20
2019-02-12T22:14:49.023Z,75.30
2019-02-12T22:17:34.391Z,76.10
2019-02-12T22:20:19.399Z,76.70
2019-02-12T22:23:13.115Z,76.90
2019-02-12T22:25:58.063Z,77.00
2019-02-12T22:28:43.111Z,77.10
2019-02-12T22:31:36.883Z,77.30
2019-02-12T22:34:21.589Z,78.60
2019-02-12T22:37:05.888Z,77.80
2019-02-12T22:39:50.505Z,77.90
2019-02-12T22:42:35.477Z,78.00
2019-02-12T22:45:20.625Z,78.10
2019-02-12T22:48:05.651Z,78.20
2019-02-12T22:50:50.285Z,78.40
2019-02-12T22:53:43.059Z,78.50
2019-02-12T22:56:27.948Z,78.10
2019-02-12T22:59:12.801Z,77.80
2019-02-12T23:01:57.167Z,78.00
2019-02-12T23:04:42.336Z,78.80
2019-02-12T23:07:26.696Z,79.40
2019-02-12T23:10:11.507Z,79.80
2019-02-12T23:12:56.039Z,79.90
2019-02-12T23:15:41.145Z,80.00
2019-02-12T23:18:25.881Z,80.30
2019-02-12T23:21:11.057Z,80.80
2019-02-12T23:23:56.032Z,80.80
2019-02-12T23:26:41.668Z,80.80
2019-02-12T23:29:26.343Z,80.80
2019-02-12T23:32:10.860Z,80.90
2019-02-12T23:35:04.156Z,80.80
2019-02-12T23:37:49.063Z,80.60
2019-02-12T23:40:36.191Z,80.40
2019-02-12T23:43:29.430Z,80.20
2019-02-12T23:46:14.618Z,80.20
2019-02-12T23:48:59.428Z,80.80
2019-02-12T23:51:43.544Z,81.00
2019-02-12T23:54:28.984Z,81.10
2019-02-12T23:57:13.887Z,81.10
2019-02-12T23:59:58.805Z,81.10
